createdAt,value
2018-09-23T00:00:02.970Z,39.80
2018-09-23T00:02:31.877Z,40.90
2018-09-23T00:05:00.855Z,40.10
2018-09-23T00:07:29.802Z,39.10
2018-09-23T00:09:58.874Z,39.10
2018-09-23T00:12:27.771Z,39.10
2018-09-23T00:14:56.666Z,39.10
2018-09-23T00:17:25.555Z,39.70
2018-09-23T00:19:54.452Z,39.00
2018-09-23T00:22:23.382Z,39.00
2018-09-23T00:24:52.211Z,39.00
2018-09-23T00:27:21.102Z,39.00
2018-09-23T00:29:50.598Z,38.60
2018-09-23T00:32:21.851Z,39.00
2018-09-23T00:34:50.746Z,39.00
2018-09-23T00:37:19.646Z,38.90
2018-09-23T00:39:48.655Z,39.00
2018-09-23T00:42:17.531Z,39.00
2018-09-23T00:44:46.414Z,38.90
2018-09-23T00:47:15.298Z,38.90
2018-09-23T00:49:44.187Z,38.90
2018-09-23T00:52:13.054Z,39.00
2018-09-23T00:54:41.943Z,38.90
2018-09-23T00:57:10.809Z,39.00
2018-09-23T00:59:39.707Z,39.00
2018-09-23T01:02:08.619Z,40.00
2018-09-23T01:04:37.518Z,39.00
2018-09-23T01:07:06.438Z,39.00
2018-09-23T01:09:35.347Z,39.00
2018-09-23T01:12:04.266Z,39.00
2018-09-23T01:14:33.159Z,39.00
2018-09-23T01:17:02.090Z,39.10
2018-09-23T01:19:31.004Z,39.20
2018-09-23T01:21:59.926Z,39.70
2018-09-23T01:24:28.960Z,40.70
2018-09-23T01:26:57.850Z,41.70
2018-09-23T01:29:26.748Z,41.30
2018-09-23T01:31:55.647Z,42.60
2018-09-23T01:34:24.536Z,44.40
2018-09-23T01:36:53.550Z,44.60
2018-09-23T01:39:22.451Z,45.90
2018-09-23T01:41:51.318Z,45.10
2018-09-23T01:44:20.198Z,46.60
2018-09-23T01:46:49.063Z,47.70
2018-09-23T01:49:17.941Z,47.70
2018-09-23T01:51:46.813Z,49.40
2018-09-23T01:54:15.715Z,51.10
2018-09-23T01:56:44.570Z,51.10
2018-09-23T01:59:13.454Z,51.20
2018-09-23T02:01:42.339Z,51.90
2018-09-23T02:04:11.199Z,53.00
2018-09-23T02:06:40.096Z,53.80
2018-09-23T02:09:09.616Z,53.90
2018-09-23T02:11:38.499Z,53.00
2018-09-23T02:14:07.387Z,53.80
2018-09-23T02:16:36.302Z,54.10
2018-09-23T02:19:05.738Z,53.50
2018-09-23T02:21:34.635Z,53.40
2018-09-23T02:24:03.726Z,54.40
2018-09-23T02:26:32.666Z,55.20
2018-09-23T02:29:01.580Z,55.20
2018-09-23T02:31:30.527Z,53.40
2018-09-23T02:33:59.411Z,55.30
2018-09-23T02:36:28.344Z,55.90
2018-09-23T02:38:57.215Z,57.50
2018-09-23T02:41:26.114Z,57.90
2018-09-23T02:43:54.985Z,58.20
2018-09-23T02:46:23.863Z,60.40
2018-09-23T02:48:52.739Z,61.80
2018-09-23T02:51:21.627Z,64.00
2018-09-23T02:53:50.494Z,66.40
2018-09-23T02:56:19.390Z,66.70
2018-09-23T02:58:48.262Z,67.30
2018-09-23T03:01:17.174Z,67.60
2018-09-23T03:03:46.057Z,68.40
2018-09-23T03:06:14.972Z,69.00
2018-09-23T03:08:43.835Z,68.80
2018-09-23T03:11:12.788Z,69.30
2018-09-23T03:13:41.645Z,71.60
2018-09-23T03:16:10.687Z,71.40
2018-09-23T03:18:39.555Z,71.60
2018-09-23T03:21:08.439Z,72.80
2018-09-23T03:23:37.332Z,73.50
2018-09-23T03:26:06.199Z,73.50
2018-09-23T03:28:35.138Z,73.60
2018-09-23T03:31:04.068Z,74.50
2018-09-23T03:33:32.958Z,74.50
2018-09-23T03:36:01.887Z,74.20
2018-09-23T03:38:30.869Z,72.60
2018-09-23T03:40:59.770Z,72.50
2018-09-23T03:43:28.658Z,72.60
2018-09-23T03:45:57.570Z,71.00
2018-09-23T03:48:26.456Z,70.70
2018-09-23T03:50:55.492Z,70.10
2018-09-23T03:53:24.342Z,69.30
2018-09-23T03:55:53.223Z,70.60
2018-09-23T03:58:22.084Z,69.80
2018-09-23T04:00:50.978Z,69.30
2018-09-23T04:03:20.011Z,69.10
2018-09-23T04:05:48.881Z,69.90
2018-09-23T04:08:17.825Z,69.70
2018-09-23T04:10:46.720Z,69.90
2018-09-23T04:13:15.574Z,71.30
2018-09-23T04:15:44.450Z,71.50
2018-09-23T04:18:13.332Z,73.40
2018-09-23T04:20:42.206Z,74.20
2018-09-23T04:23:11.074Z,75.70
2018-09-23T04:25:39.950Z,77.40
2018-09-23T04:28:08.826Z,79.10
2018-09-23T04:30:37.706Z,81.10
2018-09-23T04:33:06.585Z,83.80
2018-09-23T04:35:35.475Z,86.90
2018-09-23T04:38:04.411Z,87.20
2018-09-23T04:40:33.351Z,89.40
2018-09-23T04:43:02.343Z,90.80
2018-09-23T04:45:31.383Z,91.10
2018-09-23T04:48:00.366Z,92.00
2018-09-23T04:50:29.333Z,92.20
2018-09-23T04:52:58.403Z,93.00
2018-09-23T04:55:27.326Z,93.60
2018-09-23T04:57:56.147Z,93.10
2018-09-23T05:00:25.011Z,94.30
2018-09-23T05:02:53.899Z,95.00
2018-09-23T05:05:22.894Z,95.80
2018-09-23T05:07:51.762Z,96.20
2018-09-23T05:10:20.674Z,97.00
2018-09-23T05:12:49.538Z,97.80
2018-09-23T05:15:18.430Z,98.60
2018-09-23T05:17:47.303Z,98.80
2018-09-23T05:20:16.190Z,99.30
2018-09-23T05:22:45.063Z,99.70
2018-09-23T05:25:13.954Z,99.90
2018-09-23T05:27:42.831Z,99.90
2018-09-23T05:30:11.718Z,99.90
2018-09-23T05:32:40.570Z,99.90
2018-09-23T05:35:09.499Z,99.90
2018-09-23T05:37:38.358Z,99.90
2018-09-23T05:40:07.991Z,99.90
2018-09-23T05:42:36.890Z,99.90
2018-09-23T05:45:06.663Z,99.90
2018-09-23T05:47:35.519Z,99.90
2018-09-23T05:50:04.778Z,99.90
2018-09-23T05:52:33.687Z,99.90
2018-09-23T05:55:02.617Z,99.90
2018-09-23T05:57:31.520Z,99.90
2018-09-23T06:00:00.488Z,99.90
2018-09-23T06:02:29.500Z,99.90
2018-09-23T06:04:58.473Z,99.90
2018-09-23T06:07:27.404Z,99.90
2018-09-23T06:09:56.335Z,99.90
2018-09-23T06:12:25.250Z,99.90
2018-09-23T06:14:54.115Z,99.90
2018-09-23T06:17:23.035Z,99.90
2018-09-23T06:19:51.944Z,99.90
2018-09-23T06:22:20.840Z,99.90
2018-09-23T06:24:49.694Z,99.90
2018-09-23T06:27:18.587Z,99.90
2018-09-23T06:29:47.547Z,99.90
2018-09-23T06:32:16.436Z,99.90
2018-09-23T06:34:45.306Z,99.90
2018-09-23T06:37:14.278Z,99.90
2018-09-23T06:39:43.148Z,99.90
2018-09-23T06:42:12.030Z,99.90
2018-09-23T06:44:40.915Z,99.90
2018-09-23T06:47:09.878Z,99.90
2018-09-23T06:49:38.746Z,99.90
2018-09-23T06:52:11.682Z,99.90
2018-09-23T06:54:40.546Z,99.90
2018-09-23T06:57:09.537Z,99.90
2018-09-23T06:59:38.361Z,99.90
2018-09-23T07:02:07.242Z,99.90
2018-09-23T07:04:36.215Z,99.90
2018-09-23T07:07:05.038Z,99.90
2018-09-23T07:09:33.924Z,99.90
2018-09-23T07:12:02.818Z,99.90
2018-09-23T07:14:31.805Z,99.90
2018-09-23T07:17:00.950Z,99.90
2018-09-23T07:19:29.875Z,99.90
2018-09-23T07:21:58.790Z,99.90
2018-09-23T07:24:27.665Z,99.90
2018-09-23T07:26:56.575Z,99.90
2018-09-23T07:29:25.727Z,99.90
2018-09-23T07:31:54.627Z,99.90
2018-09-23T07:34:23.550Z,99.90
2018-09-23T07:36:52.698Z,99.90
2018-09-23T07:39:21.562Z,99.90
2018-09-23T07:41:50.400Z,99.90
2018-09-23T07:44:19.451Z,99.90
2018-09-23T07:46:48.466Z,99.90
2018-09-23T07:49:17.535Z,99.90
2018-09-23T07:51:46.486Z,99.90
2018-09-23T07:54:15.367Z,99.90
2018-09-23T07:56:44.266Z,99.90
2018-09-23T07:59:13.211Z,99.90
2018-09-23T08:01:42.203Z,99.90
2018-09-23T08:04:11.267Z,99.90
2018-09-23T08:06:40.169Z,99.90
2018-09-23T08:09:09.899Z,99.90
2018-09-23T08:11:39.440Z,99.90
2018-09-23T08:14:09.264Z,99.90
2018-09-23T08:16:37.778Z,99.90
2018-09-23T08:19:07.157Z,99.90
2018-09-23T08:21:36.079Z,99.90
2018-09-23T08:24:04.984Z,99.90
2018-09-23T08:26:33.900Z,99.90
2018-09-23T08:29:02.834Z,99.90
2018-09-23T08:31:31.748Z,99.90
2018-09-23T08:34:00.891Z,99.90
2018-09-23T08:36:29.788Z,99.90
2018-09-23T08:38:58.705Z,99.90
2018-09-23T08:41:27.627Z,99.90
2018-09-23T08:43:56.506Z,99.90
2018-09-23T08:46:25.726Z,99.90
2018-09-23T08:48:54.667Z,99.90
2018-09-23T08:51:23.563Z,99.90
2018-09-23T08:53:52.436Z,99.90
2018-09-23T08:56:21.331Z,99.90
2018-09-23T08:58:50.234Z,99.90
2018-09-23T09:01:19.136Z,99.90
2018-09-23T09:03:48.079Z,99.90
2018-09-23T09:06:16.967Z,99.90
2018-09-23T09:08:45.846Z,99.90
2018-09-23T09:11:14.738Z,99.90
2018-09-23T09:13:43.617Z,99.90
2018-09-23T09:16:12.510Z,99.90
2018-09-23T09:18:41.568Z,99.90
2018-09-23T09:21:10.415Z,99.90
2018-09-23T09:23:39.339Z,99.90
2018-09-23T09:26:08.231Z,99.90
2018-09-23T09:28:37.101Z,99.90
2018-09-23T09:31:06.015Z,99.90
2018-09-23T09:33:34.909Z,99.90
2018-09-23T09:36:03.847Z,99.90
2018-09-23T09:38:39.479Z,99.90
2018-09-23T09:41:08.374Z,99.90
2018-09-23T09:43:37.247Z,99.90
2018-09-23T09:46:06.382Z,99.90
2018-09-23T09:48:35.315Z,99.90
2018-09-23T09:51:04.214Z,99.90
2018-09-23T09:53:33.150Z,99.90
2018-09-23T09:56:02.097Z,99.90
2018-09-23T09:58:30.994Z,99.90
2018-09-23T10:00:59.946Z,99.90
2018-09-23T10:03:29.011Z,99.90
2018-09-23T10:05:58.135Z,99.90
2018-09-23T10:08:27.042Z,99.90
2018-09-23T10:10:55.956Z,99.90
2018-09-23T10:13:24.843Z,99.90
2018-09-23T10:15:53.731Z,99.90
2018-09-23T10:18:22.619Z,99.90
2018-09-23T10:20:51.494Z,99.90
2018-09-23T10:23:20.519Z,99.90
2018-09-23T10:25:49.307Z,99.90
2018-09-23T10:28:18.354Z,99.90
2018-09-23T10:30:47.231Z,99.90
2018-09-23T10:33:16.158Z,99.90
2018-09-23T10:35:45.052Z,99.90
2018-09-23T10:38:14.018Z,99.90
2018-09-23T10:40:42.899Z,99.90
2018-09-23T10:43:11.802Z,99.90
2018-09-23T10:45:40.683Z,99.90
2018-09-23T10:48:09.564Z,99.90
2018-09-23T10:50:38.482Z,99.90
2018-09-23T10:53:07.401Z,99.90
2018-09-23T10:55:36.367Z,99.90
2018-09-23T10:58:06.035Z,99.90
2018-09-23T11:00:34.958Z,99.90
2018-09-23T11:03:03.861Z,99.90
2018-09-23T11:05:32.746Z,99.90
2018-09-23T11:08:01.675Z,99.80
2018-09-23T11:10:30.753Z,99.90
2018-09-23T11:12:59.718Z,99.90
2018-09-23T11:15:28.651Z,99.00
2018-09-23T11:17:57.554Z,98.10
2018-09-23T11:20:26.454Z,98.80
2018-09-23T11:22:55.345Z,98.10
2018-09-23T11:25:24.226Z,98.70
2018-09-23T11:27:53.130Z,99.40
2018-09-23T11:30:22.161Z,98.30
2018-09-23T11:32:51.164Z,98.20
2018-09-23T11:35:20.084Z,98.10
2018-09-23T11:37:48.959Z,98.10
2018-09-23T11:40:17.959Z,98.40
2018-09-23T11:42:46.899Z,99.10
2018-09-23T11:45:15.751Z,98.90
2018-09-23T11:47:44.650Z,98.10
2018-09-23T11:50:13.555Z,98.10
2018-09-23T11:52:42.515Z,99.00
2018-09-23T11:55:11.411Z,98.60
2018-09-23T11:57:40.304Z,98.70
2018-09-23T12:00:09.415Z,99.20
2018-09-23T12:02:38.367Z,99.50
2018-09-23T12:05:07.275Z,99.10
2018-09-23T12:07:36.183Z,99.40
2018-09-23T12:10:05.135Z,99.20
2018-09-23T12:12:34.102Z,99.60
2018-09-23T12:15:03.051Z,99.90
2018-09-23T12:17:32.037Z,99.30
2018-09-23T12:20:00.962Z,99.90
2018-09-23T12:22:30.066Z,98.80
2018-09-23T12:24:59.022Z,98.50
2018-09-23T12:27:27.954Z,99.30
2018-09-23T12:29:56.847Z,98.60
2018-09-23T12:32:25.784Z,98.30
2018-09-23T12:34:54.656Z,98.60
2018-09-23T12:37:23.548Z,97.50
2018-09-23T12:39:52.553Z,96.80
2018-09-23T12:42:21.403Z,95.10
2018-09-23T12:44:50.346Z,94.70
2018-09-23T12:47:19.239Z,94.60
2018-09-23T12:49:48.167Z,94.80
2018-09-23T12:52:17.067Z,92.10
2018-09-23T12:54:45.958Z,91.50
2018-09-23T12:57:14.843Z,88.90
2018-09-23T12:59:43.732Z,88.60
2018-09-23T13:02:12.630Z,89.60
2018-09-23T13:04:43.544Z,90.00
2018-09-23T13:07:12.446Z,85.00
2018-09-23T13:09:41.354Z,86.90
2018-09-23T13:12:10.264Z,85.70
2018-09-23T13:14:39.155Z,85.50
2018-09-23T13:17:08.071Z,71.00
2018-09-23T13:19:37.046Z,73.80
2018-09-23T13:22:05.912Z,65.70
2018-09-23T13:24:34.794Z,61.20
2018-09-23T13:27:03.778Z,60.10
2018-09-23T13:29:32.671Z,60.50
2018-09-23T13:32:01.659Z,65.10
2018-09-23T13:34:30.635Z,64.70
2018-09-23T13:36:59.546Z,64.20
2018-09-23T13:39:28.582Z,56.80
2018-09-23T13:41:57.486Z,53.10
2018-09-23T13:44:26.370Z,51.80
2018-09-23T13:46:55.362Z,50.90
2018-09-23T13:49:24.493Z,46.90
2018-09-23T13:51:53.444Z,44.50
2018-09-23T13:54:22.339Z,44.30
2018-09-23T13:56:51.219Z,42.80
2018-09-23T13:59:20.099Z,46.10
2018-09-23T14:01:48.994Z,48.00
2018-09-23T14:04:17.883Z,49.10
2018-09-23T14:06:46.759Z,47.20
2018-09-23T14:09:15.706Z,46.70
2018-09-23T14:11:44.626Z,46.50
2018-09-23T14:14:13.498Z,44.60
2018-09-23T14:16:42.427Z,43.40
2018-09-23T14:19:11.513Z,44.40
2018-09-23T14:21:40.390Z,43.10
2018-09-23T14:24:09.285Z,46.40
2018-09-23T14:26:38.190Z,45.40
2018-09-23T14:29:07.190Z,43.70
2018-09-23T14:31:36.266Z,42.30
2018-09-23T14:34:05.279Z,38.40
2018-09-23T14:36:34.224Z,38.30
2018-09-23T14:39:03.543Z,36.90
2018-09-23T14:41:32.415Z,40.00
2018-09-23T14:44:01.358Z,40.70
2018-09-23T14:46:30.258Z,40.20
2018-09-23T14:48:59.327Z,39.80
2018-09-23T14:51:28.291Z,41.40
2018-09-23T14:53:57.234Z,41.60
2018-09-23T14:56:26.145Z,41.90
2018-09-23T14:58:55.034Z,41.60
2018-09-23T15:01:23.918Z,41.40
2018-09-23T15:03:52.799Z,42.10
2018-09-23T15:06:21.733Z,41.90
2018-09-23T15:08:50.566Z,42.00
2018-09-23T15:11:19.426Z,41.50
2018-09-23T15:13:48.339Z,40.70
2018-09-23T15:16:17.182Z,42.60
2018-09-23T15:18:46.065Z,42.00
2018-09-23T15:21:14.983Z,42.20
2018-09-23T15:23:43.849Z,42.00
2018-09-23T15:26:12.799Z,41.80
2018-09-23T15:28:41.690Z,42.40
2018-09-23T15:31:10.611Z,41.90
2018-09-23T15:33:39.487Z,41.80
2018-09-23T15:36:08.374Z,41.70
2018-09-23T15:38:37.265Z,41.80
2018-09-23T15:41:06.711Z,42.20
2018-09-23T15:43:35.635Z,42.70
2018-09-23T15:46:04.755Z,43.00
2018-09-23T15:48:33.789Z,43.90
2018-09-23T15:51:02.679Z,43.50
2018-09-23T15:53:31.726Z,42.50
2018-09-23T15:56:00.619Z,43.30
2018-09-23T15:58:29.976Z,43.00
2018-09-23T16:00:58.905Z,42.90
2018-09-23T16:03:27.798Z,43.40
2018-09-23T16:05:56.697Z,43.40
2018-09-23T16:08:25.601Z,43.40
2018-09-23T16:10:54.462Z,44.40
2018-09-23T16:13:23.374Z,45.90
2018-09-23T16:15:52.257Z,47.60
2018-09-23T16:18:21.254Z,50.90
2018-09-23T16:20:50.069Z,94.70
2018-09-23T16:23:19.067Z,99.90
2018-09-23T16:25:47.966Z,99.90
2018-09-23T16:28:16.875Z,99.90
2018-09-23T16:30:45.842Z,99.90
2018-09-23T16:33:14.789Z,99.90
2018-09-23T16:35:43.675Z,99.90
2018-09-23T16:38:12.584Z,99.90
2018-09-23T16:40:41.498Z,99.90
2018-09-23T16:43:10.390Z,99.90
2018-09-23T16:45:39.423Z,99.90
2018-09-23T16:48:08.339Z,99.90
2018-09-23T16:50:38.310Z,99.90
2018-09-23T16:53:07.224Z,99.90
2018-09-23T16:55:36.226Z,99.90
2018-09-23T16:58:05.276Z,99.90
2018-09-23T17:00:34.220Z,99.90
2018-09-23T17:03:03.106Z,99.90
2018-09-23T17:05:32.007Z,99.90
2018-09-23T17:08:00.927Z,99.90
2018-09-23T17:10:29.839Z,99.90
2018-09-23T17:12:58.846Z,99.90
2018-09-23T17:15:27.727Z,99.90
2018-09-23T17:17:56.627Z,99.90
2018-09-23T17:20:25.514Z,99.90
2018-09-23T17:22:54.405Z,99.90
2018-09-23T17:25:23.283Z,99.90
2018-09-23T17:27:53.965Z,99.90
2018-09-23T17:30:23.086Z,99.90
2018-09-23T17:32:52.056Z,99.90
2018-09-23T17:35:20.975Z,99.90
2018-09-23T17:37:49.887Z,99.90
2018-09-23T17:40:18.804Z,99.90
2018-09-23T17:42:47.702Z,99.90
2018-09-23T17:45:16.590Z,99.90
2018-09-23T17:47:45.634Z,99.90
2018-09-23T17:50:14.536Z,99.90
2018-09-23T17:52:43.431Z,99.90
2018-09-23T17:55:12.314Z,99.90
2018-09-23T17:57:41.415Z,99.90
2018-09-23T18:00:10.301Z,99.90
2018-09-23T18:02:39.187Z,99.90
2018-09-23T18:05:08.126Z,99.90
2018-09-23T18:07:36.997Z,99.90
2018-09-23T18:10:05.915Z,99.90
2018-09-23T18:12:34.806Z,99.90
2018-09-23T18:15:03.810Z,99.90
2018-09-23T18:17:32.732Z,99.90
2018-09-23T18:20:01.626Z,99.90
2018-09-23T18:22:30.523Z,99.90
2018-09-23T18:24:59.446Z,99.90
2018-09-23T18:27:28.338Z,99.90
2018-09-23T18:29:57.294Z,99.90
2018-09-23T18:32:26.148Z,99.90
2018-09-23T18:34:55.051Z,99.90
2018-09-23T18:37:24.018Z,99.90
2018-09-23T18:39:52.831Z,99.90
2018-09-23T18:42:21.709Z,99.90
2018-09-23T18:44:50.595Z,99.90
2018-09-23T18:47:19.461Z,99.90
2018-09-23T18:49:48.531Z,99.90
2018-09-23T18:52:17.355Z,99.90
2018-09-23T18:54:51.742Z,99.90
2018-09-23T18:57:20.639Z,99.90
2018-09-23T18:59:49.679Z,99.90
2018-09-23T19:02:18.822Z,99.90
2018-09-23T19:04:47.735Z,99.90
2018-09-23T19:07:17.173Z,99.80
2018-09-23T19:09:46.047Z,99.40
2018-09-23T19:12:14.927Z,99.90
2018-09-23T19:14:43.974Z,99.90
2018-09-23T19:17:12.839Z,99.90
2018-09-23T19:20:18.706Z,99.90
2018-09-23T19:22:52.929Z,99.90
2018-09-23T19:25:21.827Z,99.90
2018-09-23T19:27:50.694Z,99.90
2018-09-23T19:30:19.596Z,99.60
2018-09-23T19:32:48.488Z,99.20
2018-09-23T19:35:17.378Z,98.30
2018-09-23T19:37:46.262Z,99.30
2018-09-23T19:40:15.240Z,99.60
2018-09-23T19:42:44.438Z,99.80
2018-09-23T19:45:13.419Z,99.90
2018-09-23T19:47:42.446Z,98.50
2018-09-23T19:50:11.435Z,98.10
2018-09-23T19:52:40.406Z,98.40
2018-09-23T19:55:09.327Z,96.60
2018-09-23T19:57:39.258Z,97.60
2018-09-23T20:00:08.222Z,99.00
2018-09-23T20:02:37.105Z,98.40
2018-09-23T20:05:06.059Z,99.90
2018-09-23T20:07:35.719Z,99.90
2018-09-23T20:10:04.906Z,99.90
2018-09-23T20:12:33.915Z,99.90
2018-09-23T20:15:03.900Z,99.90
2018-09-23T20:17:33.018Z,99.90
2018-09-23T20:20:01.867Z,99.90
2018-09-23T20:22:30.756Z,99.90
2018-09-23T20:24:59.658Z,99.90
2018-09-23T20:27:28.564Z,99.90
2018-09-23T20:29:58.144Z,99.90
2018-09-23T20:32:27.055Z,99.90
2018-09-23T20:34:56.015Z,99.90
2018-09-23T20:37:24.879Z,99.90
2018-09-23T20:39:53.837Z,99.90
2018-09-23T20:42:22.731Z,99.90
2018-09-23T20:44:51.637Z,99.90
2018-09-23T20:47:20.523Z,99.90
2018-09-23T20:49:49.418Z,99.90
2018-09-23T20:52:18.301Z,98.10
2018-09-23T20:54:47.194Z,98.30
2018-09-23T20:57:16.107Z,98.00
2018-09-23T20:59:45.043Z,97.60
2018-09-23T21:02:17.836Z,96.30
2018-09-23T21:04:46.674Z,97.90
2018-09-23T21:07:15.535Z,98.70
2018-09-23T21:09:44.423Z,98.80
2018-09-23T21:12:13.310Z,99.40
2018-09-23T21:14:44.283Z,97.90
2018-09-23T21:17:13.147Z,98.20
2018-09-23T21:19:42.038Z,98.50
2018-09-23T21:22:10.914Z,99.30
2018-09-23T21:24:39.798Z,99.70
2018-09-23T21:27:08.670Z,99.90
2018-09-23T21:29:37.646Z,99.70
2018-09-23T21:32:06.742Z,99.50
2018-09-23T21:34:35.755Z,99.70
2018-09-23T21:37:04.672Z,99.90
2018-09-23T21:39:33.566Z,99.90
2018-09-23T21:42:02.452Z,99.80
2018-09-23T21:44:31.367Z,99.70
2018-09-23T21:47:00.263Z,99.90
2018-09-23T21:49:29.282Z,99.30
2018-09-23T21:51:58.399Z,99.00
2018-09-23T21:54:27.627Z,98.40
2018-09-23T21:56:56.486Z,98.30
2018-09-23T21:59:30.803Z,98.30
2018-09-23T22:01:59.705Z,97.80
2018-09-23T22:04:28.600Z,97.00
2018-09-23T22:06:57.495Z,96.30
2018-09-23T22:09:26.439Z,96.10
2018-09-23T22:11:55.309Z,96.00
2018-09-23T22:14:24.190Z,96.00
2018-09-23T22:16:53.087Z,93.10
2018-09-23T22:19:21.974Z,92.90
2018-09-23T22:21:50.878Z,92.40
2018-09-23T22:24:19.814Z,92.00
2018-09-23T22:26:48.693Z,91.30
2018-09-23T22:29:17.578Z,92.30
2018-09-23T22:31:46.451Z,90.30
2018-09-23T22:34:15.335Z,90.80
2018-09-23T22:36:44.214Z,93.40
2018-09-23T22:39:13.103Z,89.50
2018-09-23T22:41:42.075Z,89.00
2018-09-23T22:44:11.058Z,89.20
2018-09-23T22:46:40.146Z,90.80
2018-09-23T22:49:09.043Z,87.80
2018-09-23T22:51:37.907Z,88.30
2018-09-23T22:54:06.883Z,86.70
2018-09-23T22:56:35.764Z,85.80
2018-09-23T22:59:04.735Z,84.90
2018-09-23T23:01:33.715Z,81.70
2018-09-23T23:04:02.594Z,79.80
2018-09-23T23:06:31.498Z,81.60
2018-09-23T23:09:00.425Z,85.10
2018-09-23T23:11:29.359Z,84.00
2018-09-23T23:13:58.257Z,87.00
2018-09-23T23:16:27.183Z,84.50
2018-09-23T23:18:56.102Z,88.10
2018-09-23T23:21:24.966Z,85.50
2018-09-23T23:23:53.862Z,82.60
2018-09-23T23:26:22.729Z,84.70
2018-09-23T23:28:51.623Z,88.70
2018-09-23T23:31:20.482Z,85.40
2018-09-23T23:33:49.355Z,88.40
2018-09-23T23:36:18.250Z,86.90
2018-09-23T23:38:47.134Z,90.00
2018-09-23T23:41:16.022Z,86.60
2018-09-23T23:43:44.878Z,88.50
2018-09-23T23:46:13.767Z,89.30
2018-09-23T23:48:42.618Z,89.20
2018-09-23T23:51:11.494Z,90.80
2018-09-23T23:53:40.499Z,90.00
2018-09-23T23:56:09.527Z,90.60
2018-09-23T23:58:38.530Z,91.50
